createdAt,value
2016-11-07T00:00:23.584Z,99.99
2016-11-07T00:01:36.656Z,99.99
2016-11-07T00:02:49.282Z,99.99
2016-11-07T00:04:02.435Z,99.99
2016-11-07T00:05:15.553Z,99.99
2016-11-07T00:06:27.585Z,99.99
2016-11-07T00:07:39.583Z,99.99
2016-11-07T00:08:52.204Z,99.99
2016-11-07T00:10:05.296Z,99.99
2016-11-07T00:11:18.365Z,99.99
2016-11-07T00:12:30.346Z,99.99
2016-11-07T00:13:42.939Z,99.99
2016-11-07T00:14:56.556Z,99.99
2016-11-07T00:16:09.728Z,99.99
2016-11-07T00:17:22.250Z,99.99
2016-11-07T00:18:34.722Z,99.99
2016-11-07T00:19:47.804Z,99.99
2016-11-07T00:20:59.752Z,99.99
2016-11-07T00:22:12.401Z,99.99
2016-11-07T00:23:26.071Z,99.99
2016-11-07T00:24:39.670Z,99.99
2016-11-07T00:25:52.829Z,99.99
2016-11-07T00:27:05.294Z,99.99
2016-11-07T00:28:18.915Z,99.99
2016-11-07T00:29:32.547Z,99.99
2016-11-07T00:30:45.585Z,99.99
2016-11-07T00:31:58.131Z,99.99
2016-11-07T00:33:09.074Z,99.99
2016-11-07T00:34:21.139Z,99.99
2016-11-07T00:35:34.261Z,99.99
2016-11-07T00:36:48.120Z,99.99
2016-11-07T00:38:01.224Z,99.99
2016-11-07T00:39:14.360Z,99.99
2016-11-07T00:40:26.384Z,99.99
2016-11-07T00:41:40.100Z,99.99
2016-11-07T00:42:53.154Z,99.99
2016-11-07T00:44:06.195Z,99.99
2016-11-07T00:45:50.365Z,99.99
2016-11-07T00:47:03.408Z,99.99
2016-11-07T00:48:16.453Z,99.99
2016-11-07T00:49:29.009Z,99.99
2016-11-07T00:50:42.087Z,99.99
2016-11-07T00:51:54.674Z,99.99
2016-11-07T00:53:06.718Z,99.99
2016-11-07T00:54:19.766Z,99.99
2016-11-07T00:55:33.369Z,99.99
2016-11-07T00:56:46.407Z,99.99
2016-11-07T00:57:59.575Z,99.99
2016-11-07T00:59:12.769Z,99.99
2016-11-07T01:00:25.855Z,99.99
2016-11-07T01:01:38.894Z,99.99
2016-11-07T01:02:51.935Z,99.99
2016-11-07T01:04:04.485Z,99.99
2016-11-07T01:05:17.585Z,99.99
2016-11-07T01:06:30.743Z,99.99
2016-11-07T01:07:43.298Z,99.99
2016-11-07T01:08:56.405Z,99.99
2016-11-07T01:10:08.449Z,99.99
2016-11-07T01:11:22.035Z,99.99
2016-11-07T01:12:35.082Z,99.99
2016-11-07T01:13:48.216Z,99.99
2016-11-07T01:15:01.340Z,99.99
2016-11-07T01:16:14.937Z,99.99
2016-11-07T01:17:27.535Z,99.99
2016-11-07T01:18:41.206Z,99.99
2016-11-07T01:19:54.252Z,99.99
2016-11-07T01:21:06.780Z,99.99
2016-11-07T01:22:19.857Z,99.99
2016-11-07T01:23:33.462Z,99.99
2016-11-07T01:24:46.585Z,99.99
2016-11-07T01:25:58.553Z,99.99
2016-11-07T01:27:11.572Z,99.99
2016-11-07T01:28:24.599Z,99.99
2016-11-07T01:29:37.688Z,99.99
2016-11-07T01:30:50.818Z,99.99
2016-11-07T01:32:03.887Z,99.99
2016-11-07T01:33:16.948Z,99.99
2016-11-07T01:34:29.991Z,99.99
2016-11-07T01:35:42.622Z,99.99
2016-11-07T01:36:55.897Z,99.99
2016-11-07T01:38:07.943Z,99.99
2016-11-07T01:39:19.505Z,99.99
2016-11-07T01:40:32.604Z,99.99
2016-11-07T01:41:45.098Z,99.99
2016-11-07T01:42:58.144Z,99.99
2016-11-07T01:44:10.258Z,99.99
2016-11-07T01:45:23.376Z,99.99
2016-11-07T01:46:36.442Z,99.99
2016-11-07T01:47:48.968Z,99.99
2016-11-07T01:49:01.564Z,99.99
2016-11-07T01:50:14.658Z,99.99
2016-11-07T01:51:27.773Z,99.99
2016-11-07T01:52:40.343Z,99.99
2016-11-07T01:53:53.412Z,99.99
2016-11-07T01:55:05.995Z,99.99
2016-11-07T01:56:18.656Z,99.99
2016-11-07T01:57:31.758Z,99.99
2016-11-07T01:58:44.724Z,99.99
2016-11-07T01:59:56.747Z,99.99
2016-11-07T02:01:09.320Z,99.99
2016-11-07T02:02:21.845Z,99.99
2016-11-07T02:03:33.338Z,99.99
2016-11-07T02:04:46.517Z,99.99
2016-11-07T02:06:00.226Z,99.99
2016-11-07T02:07:12.779Z,99.99
2016-11-07T02:08:25.848Z,99.99
2016-11-07T02:09:39.526Z,99.99
2016-11-07T02:10:53.211Z,99.99
2016-11-07T02:12:05.186Z,99.99
2016-11-07T02:13:18.234Z,99.99
2016-11-07T02:14:31.351Z,99.99
2016-11-07T02:15:44.987Z,99.99
2016-11-07T02:16:57.019Z,99.99
2016-11-07T02:18:10.106Z,99.99
2016-11-07T02:19:23.190Z,99.99
2016-11-07T02:20:36.282Z,99.99
2016-11-07T02:21:48.883Z,99.99
2016-11-07T02:23:02.411Z,99.99
2016-11-07T02:24:15.453Z,99.99
2016-11-07T02:25:28.488Z,99.99
2016-11-07T02:26:42.166Z,99.99
2016-11-07T02:27:54.168Z,99.99
2016-11-07T02:29:06.759Z,99.99
2016-11-07T02:30:19.885Z,99.99
2016-11-07T02:31:33.446Z,99.99
2016-11-07T02:32:47.108Z,99.99
2016-11-07T02:34:00.752Z,99.99
2016-11-07T02:35:13.873Z,99.99
2016-11-07T02:36:27.508Z,99.99
2016-11-07T02:37:40.566Z,99.99
2016-11-07T02:38:53.132Z,99.99
2016-11-07T02:40:06.185Z,99.99
2016-11-07T02:41:19.262Z,99.99
2016-11-07T02:42:32.328Z,99.99
2016-11-07T02:43:45.948Z,99.99
2016-11-07T02:44:59.109Z,99.99
2016-11-07T02:46:12.151Z,99.99
2016-11-07T02:47:24.707Z,99.99
2016-11-07T02:48:37.754Z,99.99
2016-11-07T02:49:50.250Z,99.99
2016-11-07T02:51:03.843Z,99.99
2016-11-07T02:52:16.389Z,99.99
2016-11-07T02:53:28.883Z,99.99
2016-11-07T02:54:40.929Z,99.99
2016-11-07T02:55:53.495Z,99.99
2016-11-07T02:57:06.587Z,99.99
2016-11-07T02:58:19.113Z,99.99
2016-11-07T02:59:32.199Z,99.99
2016-11-07T03:00:45.731Z,99.99
2016-11-07T03:01:58.877Z,99.99
2016-11-07T03:03:12.580Z,99.99
2016-11-07T03:04:25.665Z,99.99
2016-11-07T03:05:37.707Z,99.99
2016-11-07T03:06:50.745Z,99.99
2016-11-07T03:08:04.337Z,99.99
2016-11-07T03:09:16.903Z,99.99
2016-11-07T03:10:28.959Z,99.99
2016-11-07T03:11:42.105Z,99.99
2016-11-07T03:12:55.779Z,99.99
2016-11-07T03:14:08.321Z,99.99
2016-11-07T03:15:21.457Z,99.99
2016-11-07T03:16:35.105Z,99.99
2016-11-07T03:18:19.364Z,99.99
2016-11-07T03:19:32.410Z,99.99
2016-11-07T03:20:44.969Z,99.99
2016-11-07T03:21:57.508Z,99.99
2016-11-07T03:23:10.010Z,99.99
2016-11-07T03:24:23.694Z,99.99
2016-11-07T03:26:07.370Z,99.99
2016-11-07T03:27:19.917Z,99.99
2016-11-07T03:28:32.961Z,99.99
2016-11-07T03:29:46.545Z,99.99
2016-11-07T03:30:59.614Z,99.99
2016-11-07T03:32:43.261Z,99.99
2016-11-07T03:33:55.886Z,99.99
2016-11-07T03:35:39.561Z,99.99
2016-11-07T03:36:52.061Z,99.99
2016-11-07T03:38:05.780Z,99.99
2016-11-07T03:39:19.381Z,99.99
2016-11-07T03:40:33.089Z,99.99
2016-11-07T03:41:45.608Z,99.99
2016-11-07T03:42:58.688Z,99.99
2016-11-07T03:44:11.798Z,99.99
2016-11-07T03:45:24.898Z,99.99
2016-11-07T03:46:37.988Z,99.99
2016-11-07T03:47:51.009Z,99.99
2016-11-07T03:49:04.079Z,99.99
2016-11-07T03:50:17.196Z,99.99
2016-11-07T03:51:30.842Z,99.99
2016-11-07T03:52:43.400Z,99.99
2016-11-07T03:53:56.518Z,99.99
2016-11-07T03:55:08.547Z,99.99
2016-11-07T03:56:22.285Z,99.99
2016-11-07T03:57:34.856Z,99.99
2016-11-07T03:58:46.378Z,99.99
2016-11-07T03:59:59.560Z,99.99
2016-11-07T04:01:12.652Z,99.99
2016-11-07T04:02:26.266Z,99.99
2016-11-07T04:03:39.426Z,99.99
2016-11-07T04:04:52.502Z,99.99
2016-11-07T04:06:04.006Z,99.99
2016-11-07T04:07:16.493Z,99.99
2016-11-07T04:08:29.570Z,99.99
2016-11-07T04:09:42.131Z,99.99
2016-11-07T04:10:54.649Z,99.99
2016-11-07T04:12:08.226Z,99.99
2016-11-07T04:13:21.883Z,99.99
2016-11-07T04:14:34.951Z,99.99
2016-11-07T04:15:48.532Z,99.99
2016-11-07T04:17:01.102Z,99.99
2016-11-07T04:18:14.179Z,99.99
2016-11-07T04:19:26.709Z,99.99
2016-11-07T04:20:39.755Z,99.99
2016-11-07T04:21:53.332Z,99.99
2016-11-07T04:23:06.918Z,99.99
2016-11-07T04:24:19.441Z,99.99
2016-11-07T04:25:33.151Z,99.99
2016-11-07T04:26:46.305Z,99.99
2016-11-07T04:27:58.775Z,99.99
2016-11-07T04:29:11.880Z,99.99
2016-11-07T04:30:24.390Z,99.99
2016-11-07T04:31:36.988Z,99.99
2016-11-07T04:32:50.167Z,99.99
2016-11-07T04:34:02.751Z,99.99
2016-11-07T04:35:16.280Z,99.99
2016-11-07T04:36:29.953Z,99.99
2016-11-07T04:37:43.026Z,99.99
2016-11-07T04:38:56.674Z,99.99
2016-11-07T04:40:09.258Z,99.99
2016-11-07T04:41:22.392Z,99.99
2016-11-07T04:42:35.512Z,99.99
2016-11-07T04:43:48.629Z,99.99
2016-11-07T04:45:01.643Z,99.99
2016-11-07T04:46:14.200Z,99.99
2016-11-07T04:47:27.388Z,99.99
2016-11-07T04:48:40.543Z,99.99
2016-11-07T04:49:53.099Z,99.99
2016-11-07T04:51:06.640Z,99.99
2016-11-07T04:52:19.745Z,99.99
2016-11-07T04:53:32.862Z,99.99
2016-11-07T04:54:45.940Z,99.99
2016-11-07T04:55:59.524Z,99.99
2016-11-07T04:57:11.554Z,99.99
2016-11-07T04:58:24.639Z,99.99
2016-11-07T04:59:38.253Z,99.99
2016-11-07T05:00:50.853Z,99.99
2016-11-07T05:02:04.513Z,99.99
2016-11-07T05:03:17.626Z,99.99
2016-11-07T05:05:01.850Z,99.99
2016-11-07T05:06:15.507Z,99.99
2016-11-07T05:07:28.141Z,99.99
2016-11-07T05:08:41.776Z,99.99
2016-11-07T05:09:54.822Z,99.99
2016-11-07T05:11:08.448Z,99.99
2016-11-07T05:12:22.279Z,99.99
2016-11-07T05:13:35.366Z,99.99
2016-11-07T05:14:48.496Z,99.99
2016-11-07T05:16:01.150Z,99.99
2016-11-07T05:17:13.215Z,99.99
2016-11-07T05:18:26.390Z,99.99
2016-11-07T05:19:38.940Z,99.99
2016-11-07T05:20:51.958Z,99.99
2016-11-07T05:22:05.074Z,99.99
2016-11-07T05:23:18.220Z,99.99
2016-11-07T05:24:31.871Z,99.99
2016-11-07T05:25:44.927Z,99.99
2016-11-07T05:26:58.097Z,99.99
2016-11-07T05:28:11.326Z,99.99
2016-11-07T05:29:24.982Z,99.99
2016-11-07T05:30:38.151Z,99.99
2016-11-07T05:31:51.277Z,99.99
2016-11-07T05:33:04.829Z,99.99
2016-11-07T05:34:18.398Z,99.99
2016-11-07T05:35:31.422Z,99.99
2016-11-07T05:36:45.066Z,99.99
2016-11-07T05:37:58.188Z,99.99
2016-11-07T05:39:11.900Z,99.99
2016-11-07T05:40:25.449Z,99.99
2016-11-07T05:41:38.047Z,99.99
2016-11-07T05:42:51.152Z,99.99
2016-11-07T05:44:04.785Z,99.99
2016-11-07T05:45:17.936Z,99.99
2016-11-07T05:46:31.040Z,99.99
2016-11-07T05:47:44.142Z,99.99
2016-11-07T05:48:57.291Z,99.99
2016-11-07T05:50:10.353Z,99.99
2016-11-07T05:53:08.150Z,99.99
2016-11-07T05:54:52.951Z,99.99
2016-11-07T05:56:04.940Z,99.99
2016-11-07T05:57:18.601Z,99.99
2016-11-07T05:58:32.144Z,99.99
2016-11-07T05:59:44.744Z,99.99
2016-11-07T06:00:57.269Z,99.99
2016-11-07T06:02:10.399Z,99.99
2016-11-07T06:03:23.423Z,99.99
2016-11-07T06:04:36.519Z,99.99
2016-11-07T06:05:49.555Z,99.99
2016-11-07T06:07:01.548Z,99.99
2016-11-07T06:08:14.147Z,99.99
2016-11-07T06:09:27.790Z,99.99
2016-11-07T06:10:40.308Z,99.99
2016-11-07T06:11:53.384Z,99.99
2016-11-07T06:13:06.460Z,99.99
2016-11-07T06:14:19.036Z,99.99
2016-11-07T06:15:32.661Z,99.99
2016-11-07T06:16:46.246Z,99.99
2016-11-07T06:17:59.278Z,99.99
2016-11-07T06:19:11.862Z,99.99
2016-11-07T06:20:25.018Z,99.99
2016-11-07T06:21:38.670Z,99.99
2016-11-07T06:22:51.749Z,99.99
2016-11-07T06:24:04.867Z,99.99
2016-11-07T06:25:17.981Z,99.99
2016-11-07T06:26:30.532Z,99.99
2016-11-07T06:27:43.634Z,99.99
2016-11-07T06:28:57.403Z,99.99
2016-11-07T06:30:10.024Z,99.99
2016-11-07T06:31:22.581Z,99.99
2016-11-07T06:32:35.133Z,99.99
2016-11-07T06:34:19.863Z,99.99
2016-11-07T06:35:32.947Z,99.99
2016-11-07T06:36:46.563Z,99.99
2016-11-07T06:37:59.775Z,99.99
2016-11-07T06:39:12.872Z,99.99
2016-11-07T06:40:25.903Z,99.99
2016-11-07T06:41:39.057Z,99.99
2016-11-07T06:42:52.149Z,99.99
2016-11-07T06:44:04.725Z,99.99
2016-11-07T06:45:18.393Z,99.99
2016-11-07T06:46:31.548Z,99.99
2016-11-07T06:47:44.193Z,99.99
2016-11-07T06:48:58.113Z,99.99
2016-11-07T06:50:10.697Z,99.99
2016-11-07T06:51:24.304Z,99.99
2016-11-07T06:52:37.888Z,99.99
2016-11-07T06:53:50.997Z,99.99
2016-11-07T06:55:04.189Z,99.99
2016-11-07T06:56:17.287Z,99.99
2016-11-07T06:57:29.896Z,99.99
2016-11-07T06:58:42.963Z,99.99
2016-11-07T06:59:56.046Z,99.99
2016-11-07T07:01:08.625Z,99.99
2016-11-07T07:02:21.772Z,99.99
2016-11-07T07:03:35.466Z,99.99
2016-11-07T07:04:48.572Z,99.99
2016-11-07T07:06:02.303Z,99.99
2016-11-07T07:07:15.937Z,99.99
2016-11-07T07:09:00.633Z,99.99
2016-11-07T07:10:12.651Z,99.99
2016-11-07T07:11:25.247Z,99.99
2016-11-07T07:12:38.300Z,99.99
2016-11-07T07:13:49.756Z,99.99
2016-11-07T07:15:03.365Z,99.99
2016-11-07T07:16:16.522Z,99.99
2016-11-07T07:17:30.158Z,99.99
2016-11-07T07:18:43.230Z,99.99
2016-11-07T07:20:27.904Z,99.99
2016-11-07T07:21:40.442Z,99.99
2016-11-07T07:22:53.541Z,99.99
2016-11-07T07:24:06.666Z,99.99
2016-11-07T07:25:20.303Z,99.99
2016-11-07T07:26:32.860Z,99.99
2016-11-07T07:27:45.864Z,99.99
2016-11-07T07:28:59.454Z,99.99
2016-11-07T07:30:12.567Z,99.99
2016-11-07T07:31:25.705Z,99.99
2016-11-07T07:32:38.815Z,99.99
2016-11-07T07:33:51.964Z,99.99
2016-11-07T07:35:05.094Z,99.99
2016-11-07T07:36:18.199Z,99.99
2016-11-07T07:37:31.293Z,99.99
2016-11-07T07:38:44.812Z,99.99
2016-11-07T07:39:58.367Z,99.99
2016-11-07T07:41:11.495Z,99.99
2016-11-07T07:42:24.636Z,99.99
2016-11-07T07:43:37.763Z,99.99
2016-11-07T07:44:50.279Z,99.99
2016-11-07T07:46:03.273Z,99.99
2016-11-07T07:47:46.405Z,99.99
2016-11-07T07:48:59.985Z,99.99
2016-11-07T07:50:11.540Z,99.99
2016-11-07T07:51:24.047Z,99.99
2016-11-07T07:52:37.137Z,99.99
2016-11-07T07:54:21.357Z,99.99
2016-11-07T07:55:34.451Z,99.99
2016-11-07T07:56:48.129Z,99.99
2016-11-07T07:58:01.255Z,99.99
2016-11-07T07:59:13.832Z,99.99
2016-11-07T08:00:26.961Z,99.99
2016-11-07T08:01:40.698Z,99.99
2016-11-07T08:02:54.358Z,99.99
2016-11-07T08:04:06.920Z,99.99
2016-11-07T08:05:51.686Z,99.99
2016-11-07T08:07:03.745Z,99.99
2016-11-07T08:08:16.714Z,99.99
2016-11-07T08:09:29.863Z,99.99
2016-11-07T08:10:43.032Z,99.99
2016-11-07T08:11:56.653Z,99.99
2016-11-07T08:13:09.244Z,99.99
2016-11-07T08:14:22.277Z,99.99
2016-11-07T08:15:35.836Z,99.99
2016-11-07T08:16:48.429Z,99.99
2016-11-07T08:18:02.191Z,99.99
2016-11-07T08:19:15.212Z,99.99
2016-11-07T08:20:27.782Z,99.99
2016-11-07T08:21:40.907Z,99.99
2016-11-07T08:22:54.503Z,99.99
2016-11-07T08:24:08.186Z,99.99
2016-11-07T08:25:20.735Z,99.99
2016-11-07T08:26:33.845Z,99.99
2016-11-07T08:27:47.007Z,99.99
2016-11-07T08:29:00.161Z,99.99
2016-11-07T08:30:13.316Z,99.99
2016-11-07T08:31:26.865Z,99.99
2016-11-07T08:32:39.981Z,99.99
2016-11-07T08:33:53.039Z,99.99
2016-11-07T08:35:06.121Z,99.99
2016-11-07T08:36:18.116Z,99.99
2016-11-07T08:37:31.704Z,99.99
2016-11-07T08:38:44.851Z,99.99
2016-11-07T08:39:58.043Z,99.99
2016-11-07T08:41:11.678Z,99.99
2016-11-07T08:42:24.249Z,99.99
2016-11-07T08:43:37.793Z,99.99
2016-11-07T08:44:50.341Z,99.99
2016-11-07T08:46:03.402Z,99.99
2016-11-07T08:47:15.472Z,99.99
2016-11-07T08:48:27.574Z,99.99
2016-11-07T08:49:40.688Z,99.99
2016-11-07T08:50:53.838Z,99.99
2016-11-07T08:52:06.896Z,99.99
2016-11-07T08:53:20.512Z,99.99
2016-11-07T08:54:33.648Z,99.99
2016-11-07T08:55:46.775Z,99.99
2016-11-07T08:56:59.359Z,99.99
2016-11-07T08:58:11.883Z,99.99
2016-11-07T08:59:23.908Z,99.99
2016-11-07T09:00:36.948Z,99.99
2016-11-07T09:01:49.579Z,99.99
2016-11-07T09:03:02.143Z,99.99
2016-11-07T09:04:14.665Z,99.99
2016-11-07T09:05:28.269Z,99.99
2016-11-07T09:06:41.392Z,99.99
2016-11-07T09:07:54.391Z,99.99
2016-11-07T09:09:07.032Z,99.99
2016-11-07T09:10:20.633Z,99.99
2016-11-07T09:11:33.253Z,99.99
2016-11-07T09:12:46.468Z,99.99
2016-11-07T09:14:00.123Z,99.99
2016-11-07T09:15:13.247Z,99.99
2016-11-07T09:16:26.428Z,99.99
2016-11-07T09:17:40.110Z,99.99
2016-11-07T09:18:52.692Z,99.99
2016-11-07T09:20:05.829Z,99.99
2016-11-07T09:21:18.962Z,99.99
2016-11-07T09:22:31.571Z,99.99
2016-11-07T09:23:44.635Z,99.99
2016-11-07T09:24:57.196Z,99.99
2016-11-07T09:26:10.232Z,99.99
2016-11-07T09:27:23.897Z,99.99
2016-11-07T09:28:37.509Z,99.99
2016-11-07T09:29:50.050Z,99.99
2016-11-07T09:31:03.666Z,99.99
2016-11-07T09:32:16.815Z,99.99
2016-11-07T09:33:29.336Z,99.99
2016-11-07T09:34:42.981Z,99.99
2016-11-07T09:35:56.149Z,99.99
2016-11-07T09:37:08.762Z,99.99
2016-11-07T09:38:21.359Z,99.99
2016-11-07T09:39:34.516Z,99.99
2016-11-07T09:40:47.603Z,99.99
2016-11-07T09:42:00.742Z,99.99
2016-11-07T09:43:14.411Z,99.99
2016-11-07T09:44:28.006Z,99.99
2016-11-07T09:45:39.999Z,99.99
2016-11-07T09:46:52.631Z,99.99
2016-11-07T09:48:06.250Z,99.99
2016-11-07T09:49:18.831Z,99.99
2016-11-07T09:50:32.470Z,99.99
2016-11-07T09:51:45.030Z,99.99
2016-11-07T09:52:57.596Z,99.99
2016-11-07T09:54:09.568Z,99.99
2016-11-07T09:55:22.596Z,99.99
2016-11-07T09:56:35.717Z,99.99
2016-11-07T09:57:48.795Z,99.99
2016-11-07T09:59:01.905Z,99.99
2016-11-07T10:00:15.102Z,99.99
2016-11-07T10:01:28.234Z,99.99
2016-11-07T10:02:41.883Z,99.99
2016-11-07T10:03:55.575Z,99.99
2016-11-07T10:05:09.136Z,99.99
2016-11-07T10:06:22.283Z,99.99
2016-11-07T10:07:34.890Z,99.99
2016-11-07T10:08:48.489Z,99.99
2016-11-07T10:10:01.036Z,99.99
2016-11-07T10:11:14.655Z,99.99
2016-11-07T10:12:27.800Z,99.99
2016-11-07T10:13:39.809Z,99.99
2016-11-07T10:14:53.479Z,99.99
2016-11-07T10:16:07.127Z,99.99
2016-11-07T10:17:20.343Z,99.99
2016-11-07T10:18:31.853Z,99.99
2016-11-07T10:19:45.058Z,99.99
2016-11-07T10:20:57.149Z,99.99
2016-11-07T10:22:09.207Z,99.99
2016-11-07T10:23:22.931Z,99.99
2016-11-07T10:24:35.999Z,99.99
2016-11-07T10:25:49.056Z,99.99
2016-11-07T10:27:02.865Z,99.02
2016-11-07T10:28:15.472Z,99.69
2016-11-07T10:29:29.164Z,99.21
2016-11-07T10:30:42.292Z,99.45
2016-11-07T10:31:55.947Z,99.65
2016-11-07T10:33:09.070Z,97.77
2016-11-07T10:34:22.108Z,96.7
2016-11-07T10:35:35.253Z,96.31
2016-11-07T10:36:48.929Z,97.19
2016-11-07T10:38:02.039Z,94.67
2016-11-07T10:39:14.089Z,95.54
2016-11-07T10:40:26.207Z,95.25
2016-11-07T10:41:39.341Z,93.51
2016-11-07T10:42:52.954Z,93.41
2016-11-07T10:44:06.060Z,93.85
2016-11-07T10:45:18.640Z,93.56
2016-11-07T10:46:30.713Z,92.16
2016-11-07T10:47:43.283Z,91.58
2016-11-07T10:48:56.864Z,92.49
2016-11-07T10:50:10.502Z,92.11
2016-11-07T10:51:23.616Z,92.11
2016-11-07T10:52:36.730Z,89.89
2016-11-07T10:53:49.275Z,91.43
2016-11-07T10:55:01.845Z,91.97
2016-11-07T10:56:14.951Z,91.87
2016-11-07T10:57:27.528Z,91.53
2016-11-07T10:58:41.196Z,91.43
2016-11-07T10:59:54.366Z,92.16
2016-11-07T11:01:07.494Z,92.88
2016-11-07T11:02:20.614Z,92.59
2016-11-07T11:03:34.310Z,90.41
2016-11-07T11:04:46.979Z,88.43
2016-11-07T11:06:00.671Z,89.93
2016-11-07T11:07:13.189Z,90.99
2016-11-07T11:08:25.221Z,91.86
2016-11-07T11:09:38.334Z,89.25
2016-11-07T11:10:52.180Z,90.41
2016-11-07T11:12:05.337Z,90.85
2016-11-07T11:13:17.425Z,90.08
2016-11-07T11:14:30.595Z,89.98
2016-11-07T11:15:43.756Z,89.21
2016-11-07T11:16:56.332Z,88.96
2016-11-07T11:18:09.987Z,89.93
2016-11-07T11:19:23.665Z,89.25
2016-11-07T11:20:36.252Z,88.77
2016-11-07T11:21:49.870Z,85.91
2016-11-07T11:23:03.477Z,85.91
2016-11-07T11:24:16.142Z,86.34
2016-11-07T11:25:27.692Z,85.66
2016-11-07T11:26:40.288Z,84.06
2016-11-07T11:27:54.026Z,83.77
2016-11-07T11:29:06.707Z,82.47
2016-11-07T11:30:19.268Z,84.31
2016-11-07T11:31:32.431Z,84.35
2016-11-07T11:32:46.069Z,83.67
2016-11-07T11:33:58.130Z,81.58
2016-11-07T11:35:10.726Z,81.39
2016-11-07T11:36:24.255Z,80.42
2016-11-07T11:37:36.806Z,80.71
2016-11-07T11:38:49.972Z,81.2
2016-11-07T11:40:03.608Z,81
2016-11-07T11:41:17.308Z,81.13
2016-11-07T11:42:30.918Z,81.37
2016-11-07T11:43:43.768Z,81.91
2016-11-07T11:44:57.470Z,80.55
2016-11-07T11:46:09.543Z,80.36
2016-11-07T11:47:22.632Z,78.07
2016-11-07T11:48:36.320Z,77.98
2016-11-07T11:49:48.366Z,78.56
2016-11-07T11:51:00.979Z,78.13
2016-11-07T11:52:14.588Z,78.17
2016-11-07T11:53:27.803Z,77.88
2016-11-07T11:54:40.436Z,77.82
2016-11-07T11:55:52.992Z,76.65
2016-11-07T11:57:05.567Z,75.43
2016-11-07T11:58:19.478Z,75.62
2016-11-07T11:59:31.629Z,75.49
2016-11-07T12:00:44.235Z,77.14
2016-11-07T12:01:57.361Z,77.92
2016-11-07T12:03:09.361Z,77.92
2016-11-07T12:04:23.009Z,77.28
2016-11-07T12:05:36.038Z,75.72
2016-11-07T12:06:49.720Z,76.56
2016-11-07T12:08:03.288Z,76.91
2016-11-07T12:09:16.388Z,76.91
2016-11-07T12:10:29.511Z,75.88
2016-11-07T12:11:42.539Z,75.01
2016-11-07T12:12:55.702Z,74.07
2016-11-07T12:14:08.273Z,74.3
2016-11-07T12:15:21.904Z,74.88
2016-11-07T12:16:34.495Z,74.3
2016-11-07T12:17:48.289Z,73.46
2016-11-07T12:19:01.972Z,71.68
2016-11-07T12:20:14.091Z,71.33
2016-11-07T12:21:26.071Z,72.01
2016-11-07T12:22:39.230Z,72.36
2016-11-07T12:23:52.919Z,72.36
2016-11-07T12:25:04.901Z,72.11
2016-11-07T12:26:17.483Z,70.94
2016-11-07T12:27:30.683Z,71.78
2016-11-07T12:28:44.365Z,72.91
2016-11-07T12:29:58.036Z,74.07
2016-11-07T12:31:11.140Z,73.88
2016-11-07T12:32:24.834Z,73.88
2016-11-07T12:33:38.488Z,73.39
2016-11-07T12:34:51.534Z,73.52
2016-11-07T12:36:04.130Z,72.45
2016-11-07T12:37:16.693Z,72.61
2016-11-07T12:38:29.291Z,73.88
2016-11-07T12:39:41.358Z,74.56
2016-11-07T12:40:54.480Z,74.07
2016-11-07T12:42:08.197Z,72.91
2016-11-07T12:43:20.767Z,71.2
2016-11-07T12:44:34.387Z,70.65
2016-11-07T12:45:46.978Z,68.6
2016-11-07T12:46:59.567Z,68.74
2016-11-07T12:48:12.215Z,69.32
2016-11-07T12:49:24.842Z,70.2
2016-11-07T12:50:36.844Z,70.91
2016-11-07T12:51:49.974Z,68.96
2016-11-07T12:53:03.136Z,68.48
2016-11-07T12:54:16.255Z,68.19
2016-11-07T12:55:30.037Z,69.42
2016-11-07T12:56:42.637Z,70.68
2016-11-07T12:59:39.975Z,70.78
2016-11-07T13:00:53.607Z,70.84
2016-11-07T13:02:06.196Z,69.32
2016-11-07T13:03:18.778Z,69.42
2016-11-07T13:04:31.884Z,67.67
2016-11-07T13:05:44.992Z,66.89
2016-11-07T13:06:58.625Z,66.34
2016-11-07T13:08:11.792Z,67.8
2016-11-07T13:09:24.917Z,67.28
2016-11-07T13:10:36.968Z,66.93
2016-11-07T13:11:50.116Z,65.59
2016-11-07T13:13:03.744Z,64.26
2016-11-07T13:14:16.358Z,63.87
2016-11-07T13:15:28.907Z,63.61
2016-11-07T13:16:41.501Z,65.26
2016-11-07T13:17:54.673Z,65.23
2016-11-07T13:19:07.796Z,64.39
2016-11-07T13:20:20.371Z,63.15
2016-11-07T13:21:33.516Z,63.15
2016-11-07T13:22:45.553Z,64.52
2016-11-07T13:23:59.269Z,65.82
2016-11-07T13:25:12.955Z,65.88
2016-11-07T13:26:26.083Z,65.66
2016-11-07T13:27:39.823Z,65.2
2016-11-07T13:28:52.987Z,64.55
2016-11-07T13:30:06.660Z,64.1
2016-11-07T13:31:20.319Z,63.61
2016-11-07T13:32:33.411Z,63.51
2016-11-07T13:33:47.059Z,63.45
2016-11-07T13:35:00.128Z,63.9
2016-11-07T13:36:13.217Z,64.29
2016-11-07T13:37:26.337Z,64
2016-11-07T13:38:38.394Z,64.29
2016-11-07T13:39:51.450Z,64.29
2016-11-07T13:41:04.609Z,64.1
2016-11-07T13:42:18.335Z,63.9
2016-11-07T13:43:32.002Z,64.17
2016-11-07T13:44:45.176Z,64.45
2016-11-07T13:45:57.775Z,64.2
2016-11-07T13:47:11.347Z,64.45
2016-11-07T13:48:24.476Z,65.23
2016-11-07T13:49:38.161Z,64.65
2016-11-07T13:50:50.792Z,65.14
2016-11-07T13:52:03.971Z,64.1
2016-11-07T13:53:17.013Z,63.09
2016-11-07T13:54:30.140Z,62.93
2016-11-07T13:55:43.219Z,63.02
2016-11-07T13:56:55.255Z,61.6
2016-11-07T13:58:08.349Z,60.46
2016-11-07T13:59:21.359Z,60.75
2016-11-07T14:00:33.986Z,61.33
2016-11-07T14:01:47.108Z,60.94
2016-11-07T14:03:00.283Z,61.56
2016-11-07T14:04:13.347Z,61.36
2016-11-07T14:05:26.402Z,61.46
2016-11-07T14:06:40.081Z,61.72
2016-11-07T14:07:52.613Z,59.61
2016-11-07T14:09:05.116Z,59.51
2016-11-07T14:10:18.212Z,59.97
2016-11-07T14:11:31.348Z,61.33
2016-11-07T14:12:43.959Z,60.88
2016-11-07T14:13:57.093Z,61.46
2016-11-07T14:15:10.204Z,61.27
2016-11-07T14:16:23.352Z,61.07
2016-11-07T14:17:37.181Z,62.41
2016-11-07T14:18:49.799Z,63.06
2016-11-07T14:20:03.401Z,61.99
2016-11-07T14:21:16.493Z,61.79
2016-11-07T14:22:29.697Z,62.47
2016-11-07T14:23:43.376Z,62.18
2016-11-07T14:24:56.418Z,62.18
2016-11-07T14:26:09.592Z,61.79
2016-11-07T14:27:22.773Z,61.53
2016-11-07T14:28:35.825Z,62.02
2016-11-07T14:29:48.477Z,62.57
2016-11-07T14:31:02.160Z,62.6
2016-11-07T14:32:14.215Z,61.63
2016-11-07T14:33:27.302Z,61.63
2016-11-07T14:34:39.869Z,61.72
2016-11-07T14:35:52.460Z,61.69
2016-11-07T14:37:06.213Z,61.69
2016-11-07T14:38:19.890Z,61.69
2016-11-07T14:39:33.071Z,61.69
2016-11-07T14:40:46.806Z,62.28
2016-11-07T14:41:59.356Z,62.41
2016-11-07T14:43:13.025Z,61.63
2016-11-07T14:44:26.084Z,62.02
2016-11-07T14:45:38.783Z,61.43
2016-11-07T14:46:51.391Z,61.72
2016-11-07T14:48:04.475Z,61.63
2016-11-07T14:49:17.623Z,62.12
2016-11-07T14:50:28.600Z,62.57
2016-11-07T14:51:40.618Z,61.79
2016-11-07T14:52:53.776Z,62.66
2016-11-07T14:54:07.436Z,63.64
2016-11-07T14:55:20.539Z,64.42
2016-11-07T14:56:33.648Z,64.1
2016-11-07T14:57:46.711Z,62.35
2016-11-07T14:58:59.801Z,63.06
2016-11-07T15:00:12.383Z,62.47
2016-11-07T15:01:25.028Z,62.47
2016-11-07T15:02:38.207Z,62.96
2016-11-07T15:03:50.806Z,61.89
2016-11-07T15:05:03.867Z,61.72
2016-11-07T15:06:17.006Z,60.85
2016-11-07T15:07:30.658Z,62.08
2016-11-07T15:08:43.772Z,62.96
2016-11-07T15:09:56.926Z,62.93
2016-11-07T15:11:10.027Z,63.58
2016-11-07T15:12:23.200Z,63.94
2016-11-07T15:13:35.758Z,65.01
2016-11-07T15:14:48.857Z,65.27
2016-11-07T15:16:01.902Z,64.88
2016-11-07T15:17:15.083Z,65.43
2016-11-07T15:18:27.710Z,66.47
2016-11-07T15:19:40.825Z,66.92
2016-11-07T15:20:54.441Z,67.99
2016-11-07T15:22:06.979Z,68.63
2016-11-07T15:23:20.684Z,67.7
2016-11-07T15:24:32.687Z,67.21
2016-11-07T15:25:46.301Z,67.66
2016-11-07T15:26:59.367Z,66.69
2016-11-07T15:28:12.437Z,66.5
2016-11-07T15:29:26.112Z,67.08
2016-11-07T15:30:39.236Z,66.99
2016-11-07T15:32:22.980Z,66.6
2016-11-07T15:33:35.564Z,67.18
2016-11-07T15:34:48.616Z,67.8
2016-11-07T15:36:01.673Z,66.86
2016-11-07T15:37:14.707Z,66.86
2016-11-07T15:38:27.786Z,65.98
2016-11-07T15:39:41.072Z,65.98
2016-11-07T15:40:54.148Z,66.02
2016-11-07T15:42:06.220Z,66.02
2016-11-07T15:43:19.901Z,66.6
2016-11-07T15:44:32.499Z,66.11
2016-11-07T15:45:45.660Z,66.11
2016-11-07T15:46:58.703Z,65.82
2016-11-07T15:48:10.749Z,66.14
2016-11-07T15:49:22.757Z,64.98
2016-11-07T15:50:34.753Z,64
2016-11-07T15:51:48.444Z,65.37